Cornwall, Canada
Current Conditions -  °F | °C
As of 6:00 AM on Friday 31 Oct 2014 (Local Time) from CYYG Reporting Station
Broken Clouds Broken Clouds  
Wind Chill: 34°   Ceiling: 4800
Heat Index: 37°   Visibility: 15mi
Dew Point: 30°   Wind: 5mph
Humidity: 75%   Direction: 280°W
Pressure: 29.97"   Gusts: NA
Location:  46.23°N, 63.22°W
Report Text: CYYG 310900Z 28004KT 15SM BKN048 03/M01 A2997 RMK SC6 SLP151
Loading
Personal Weather Stations






























Interactive Weather Map
Tropical Storm Tracking
New forecast layout! Learn more

10-Day Weather Forecast

Advertisements
Track Severe Weather on mobile